sensor_id;sensor_type;location;lat;lon;timestamp;temperature;humidity
40053;DHT22;25758;48.200;16.338;2022-08-18T00:02:20;27.10;67.40
40053;DHT22;25758;48.200;16.338;2022-08-18T00:04:47;27.10;67.50
40053;DHT22;25758;48.200;16.338;2022-08-18T00:07:19;27.00;67.10
40053;DHT22;25758;48.200;16.338;2022-08-18T00:09:45;27.00;67.00
40053;DHT22;25758;48.200;16.338;2022-08-18T00:12:23;27.00;66.90
40053;DHT22;25758;48.200;16.338;2022-08-18T00:14:50;27.00;67.00
40053;DHT22;25758;48.200;16.338;2022-08-18T00:17:17;27.00;67.00
40053;DHT22;25758;48.200;16.338;2022-08-18T00:19:43;27.00;66.90
40053;DHT22;25758;48.200;16.338;2022-08-18T00:22:11;26.90;66.90
40053;DHT22;25758;48.200;16.338;2022-08-18T00:24:38;26.90;66.80
40053;DHT22;25758;48.200;16.338;2022-08-18T00:27:04;26.90;66.70
40053;DHT22;25758;48.200;16.338;2022-08-18T00:29:30;26.90;66.90
40053;DHT22;25758;48.200;16.338;2022-08-18T00:31:56;26.90;66.90
40053;DHT22;25758;48.200;16.338;2022-08-18T00:34:22;26.90;66.90
40053;DHT22;25758;48.200;16.338;2022-08-18T00:36:48;26.90;67.00
40053;DHT22;25758;48.200;16.338;2022-08-18T00:39:14;26.90;66.80
40053;DHT22;25758;48.200;16.338;2022-08-18T00:41:40;26.80;67.70
40053;DHT22;25758;48.200;16.338;2022-08-18T00:44:06;26.80;67.20
40053;DHT22;25758;48.200;16.338;2022-08-18T00:46:35;26.80;67.30
40053;DHT22;25758;48.200;16.338;2022-08-18T00:49:03;26.80;67.10
40053;DHT22;25758;48.200;16.338;2022-08-18T00:56:37;26.80;67.60
40053;DHT22;25758;48.200;16.338;2022-08-18T00:59:13;26.70;67.40
40053;DHT22;25758;48.200;16.338;2022-08-18T01:01:40;26.70;67.90
40053;DHT22;25758;48.200;16.338;2022-08-18T01:04:15;26.70;68.00
40053;DHT22;25758;48.200;16.338;2022-08-18T01:06:49;26.70;67.90
40053;DHT22;25758;48.200;16.338;2022-08-18T01:09:16;26.70;67.90
40053;DHT22;25758;48.200;16.338;2022-08-18T01:11:42;26.60;68.20
40053;DHT22;25758;48.200;16.338;2022-08-18T01:14:09;26.60;68.00
40053;DHT22;25758;48.200;16.338;2022-08-18T01:16:35;26.60;68.10
40053;DHT22;25758;48.200;16.338;2022-08-18T01:19:20;26.60;68.10
40053;DHT22;25758;48.200;16.338;2022-08-18T01:22:16;26.60;68.20
40053;DHT22;25758;48.200;16.338;2022-08-18T01:24:43;26.60;68.10
40053;DHT22;25758;48.200;16.338;2022-08-18T01:27:44;26.60;67.70
40053;DHT22;25758;48.200;16.338;2022-08-18T01:30:13;26.50;67.80
40053;DHT22;25758;48.200;16.338;2022-08-18T01:32:40;26.50;68.00
40053;DHT22;25758;48.200;16.338;2022-08-18T01:35:11;26.50;68.20
40053;DHT22;25758;48.200;16.338;2022-08-18T01:37:37;26.50;68.00
40053;DHT22;25758;48.200;16.338;2022-08-18T01:40:05;26.50;68.10
40053;DHT22;25758;48.200;16.338;2022-08-18T01:42:31;26.50;68.20
40053;DHT22;25758;48.200;16.338;2022-08-18T01:44:57;26.50;68.20
40053;DHT22;25758;48.200;16.338;2022-08-18T01:47:23;26.40;68.60
40053;DHT22;25758;48.200;16.338;2022-08-18T01:49:49;26.40;68.10
40053;DHT22;25758;48.200;16.338;2022-08-18T01:52:17;26.40;68.80
40053;DHT22;25758;48.200;16.338;2022-08-18T01:54:50;26.40;68.20
40053;DHT22;25758;48.200;16.338;2022-08-18T01:57:18;26.40;68.30
40053;DHT22;25758;48.200;16.338;2022-08-18T01:59:44;26.30;68.40
40053;DHT22;25758;48.200;16.338;2022-08-18T02:02:13;26.30;68.40
40053;DHT22;25758;48.200;16.338;2022-08-18T02:04:40;26.30;68.50
40053;DHT22;25758;48.200;16.338;2022-08-18T02:07:09;26.30;68.50
40053;DHT22;25758;48.200;16.338;2022-08-18T02:09:36;26.30;68.50
40053;DHT22;25758;48.200;16.338;2022-08-18T02:12:02;26.30;68.70
40053;DHT22;25758;48.200;16.338;2022-08-18T02:14:28;26.30;68.80
40053;DHT22;25758;48.200;16.338;2022-08-18T02:16:57;26.30;68.90
40053;DHT22;25758;48.200;16.338;2022-08-18T02:19:23;26.30;69.00
40053;DHT22;25758;48.200;16.338;2022-08-18T02:21:51;26.20;69.20
40053;DHT22;25758;48.200;16.338;2022-08-18T02:24:17;26.20;69.10
40053;DHT22;25758;48.200;16.338;2022-08-18T02:26:43;26.20;69.20
40053;DHT22;25758;48.200;16.338;2022-08-18T02:29:08;26.20;69.40
40053;DHT22;25758;48.200;16.338;2022-08-18T02:31:34;26.20;69.40
40053;DHT22;25758;48.200;16.338;2022-08-18T02:34:00;26.20;69.70
40053;DHT22;25758;48.200;16.338;2022-08-18T02:36:26;26.10;69.80
40053;DHT22;25758;48.200;16.338;2022-08-18T02:38:53;26.10;69.80
40053;DHT22;25758;48.200;16.338;2022-08-18T02:41:19;26.10;70.40
40053;DHT22;25758;48.200;16.338;2022-08-18T02:43:46;26.10;69.90
40053;DHT22;25758;48.200;16.338;2022-08-18T02:46:13;26.10;69.90
40053;DHT22;25758;48.200;16.338;2022-08-18T02:48:39;26.10;70.00
40053;DHT22;25758;48.200;16.338;2022-08-18T02:51:08;26.10;70.00
40053;DHT22;25758;48.200;16.338;2022-08-18T02:53:37;26.00;69.80
40053;DHT22;25758;48.200;16.338;2022-08-18T02:56:15;26.00;70.30
40053;DHT22;25758;48.200;16.338;2022-08-18T02:59:04;26.00;70.20
40053;DHT22;25758;48.200;16.338;2022-08-18T03:01:33;25.90;70.10
40053;DHT22;25758;48.200;16.338;2022-08-18T03:04:00;26.00;70.20
40053;DHT22;25758;48.200;16.338;2022-08-18T03:06:27;25.90;70.30
40053;DHT22;25758;48.200;16.338;2022-08-18T03:08:54;25.90;70.60
40053;DHT22;25758;48.200;16.338;2022-08-18T03:11:24;25.90;70.30
40053;DHT22;25758;48.200;16.338;2022-08-18T03:13:52;25.90;70.20
40053;DHT22;25758;48.200;16.338;2022-08-18T03:16:18;25.90;70.20
40053;DHT22;25758;48.200;16.338;2022-08-18T03:18:44;25.90;70.00
40053;DHT22;25758;48.200;16.338;2022-08-18T03:21:16;25.80;70.10
40053;DHT22;25758;48.200;16.338;2022-08-18T03:23:43;25.80;70.10
40053;DHT22;25758;48.200;16.338;2022-08-18T03:26:11;25.80;70.20
40053;DHT22;25758;48.200;16.338;2022-08-18T03:28:44;25.80;70.40
40053;DHT22;25758;48.200;16.338;2022-08-18T03:31:12;25.80;70.40
40053;DHT22;25758;48.200;16.338;2022-08-18T03:33:40;25.80;70.50
40053;DHT22;25758;48.200;16.338;2022-08-18T03:36:09;25.80;70.50
40053;DHT22;25758;48.200;16.338;2022-08-18T03:38:37;25.80;70.40
40053;DHT22;25758;48.200;16.338;2022-08-18T03:41:05;25.80;70.70
40053;DHT22;25758;48.200;16.338;2022-08-18T03:43:31;25.70;71.10
40053;DHT22;25758;48.200;16.338;2022-08-18T03:46:04;25.70;70.80
40053;DHT22;25758;48.200;16.338;2022-08-18T03:48:31;25.70;70.60
40053;DHT22;25758;48.200;16.338;2022-08-18T03:51:07;25.70;70.90
40053;DHT22;25758;48.200;16.338;2022-08-18T03:53:34;25.70;70.60
40053;DHT22;25758;48.200;16.338;2022-08-18T03:56:00;25.70;70.70
40053;DHT22;25758;48.200;16.338;2022-08-18T03:58:26;25.70;70.80
40053;DHT22;25758;48.200;16.338;2022-08-18T04:00:52;25.60;70.60
40053;DHT22;25758;48.200;16.338;2022-08-18T04:03:18;25.60;70.80
40053;DHT22;25758;48.200;16.338;2022-08-18T04:05:43;25.60;70.80
40053;DHT22;25758;48.200;16.338;2022-08-18T04:08:09;25.60;70.70
40053;DHT22;25758;48.200;16.338;2022-08-18T04:10:35;25.60;70.80
40053;DHT22;25758;48.200;16.338;2022-08-18T04:13:01;25.60;71.10
40053;DHT22;25758;48.200;16.338;2022-08-18T04:15:30;25.60;71.10
40053;DHT22;25758;48.200;16.338;2022-08-18T04:18:00;25.60;71.00
40053;DHT22;25758;48.200;16.338;2022-08-18T04:20:29;25.60;71.10
40053;DHT22;25758;48.200;16.338;2022-08-18T04:22:56;25.60;71.20
40053;DHT22;25758;48.200;16.338;2022-08-18T04:25:22;25.60;71.00
40053;DHT22;25758;48.200;16.338;2022-08-18T04:27:48;25.60;71.00
40053;DHT22;25758;48.200;16.338;2022-08-18T04:30:13;25.60;70.80
40053;DHT22;25758;48.200;16.338;2022-08-18T04:32:39;25.60;70.70
40053;DHT22;25758;48.200;16.338;2022-08-18T04:35:05;25.60;70.80
40053;DHT22;25758;48.200;16.338;2022-08-18T04:37:31;25.50;71.00
40053;DHT22;25758;48.200;16.338;2022-08-18T04:39:57;25.60;71.50
40053;DHT22;25758;48.200;16.338;2022-08-18T04:42:24;25.60;71.90
40053;DHT22;25758;48.200;16.338;2022-08-18T04:44:50;25.60;72.70
40053;DHT22;25758;48.200;16.338;2022-08-18T04:47:16;25.60;72.90
40053;DHT22;25758;48.200;16.338;2022-08-18T04:49:41;25.60;73.10
40053;DHT22;25758;48.200;16.338;2022-08-18T04:52:09;25.60;73.00
40053;DHT22;25758;48.200;16.338;2022-08-18T04:54:53;25.60;73.30
40053;DHT22;25758;48.200;16.338;2022-08-18T04:57:20;25.60;73.30
40053;DHT22;25758;48.200;16.338;2022-08-18T04:59:48;25.70;73.30
40053;DHT22;25758;48.200;16.338;2022-08-18T05:02:15;25.60;73.20
40053;DHT22;25758;48.200;16.338;2022-08-18T05:04:42;25.70;73.10
40053;DHT22;25758;48.200;16.338;2022-08-18T05:07:12;25.70;73.20
40053;DHT22;25758;48.200;16.338;2022-08-18T05:09:39;25.70;73.40
40053;DHT22;25758;48.200;16.338;2022-08-18T05:12:09;25.70;73.30
40053;DHT22;25758;48.200;16.338;2022-08-18T05:14:38;25.70;73.10
40053;DHT22;25758;48.200;16.338;2022-08-18T05:17:04;25.70;73.20
40053;DHT22;25758;48.200;16.338;2022-08-18T05:19:30;25.60;73.80
40053;DHT22;25758;48.200;16.338;2022-08-18T05:21:57;25.60;73.40
40053;DHT22;25758;48.200;16.338;2022-08-18T05:24:24;25.60;73.50
40053;DHT22;25758;48.200;16.338;2022-08-18T05:26:51;25.60;73.60
40053;DHT22;25758;48.200;16.338;2022-08-18T05:29:18;25.50;73.60
40053;DHT22;25758;48.200;16.338;2022-08-18T05:31:46;25.50;73.70
40053;DHT22;25758;48.200;16.338;2022-08-18T05:34:12;25.50;74.20
40053;DHT22;25758;48.200;16.338;2022-08-18T05:37:00;25.50;74.40
40053;DHT22;25758;48.200;16.338;2022-08-18T05:39:44;25.50;74.60
40053;DHT22;25758;48.200;16.338;2022-08-18T05:42:17;25.40;74.80
40053;DHT22;25758;48.200;16.338;2022-08-18T05:44:48;25.40;75.00
40053;DHT22;25758;48.200;16.338;2022-08-18T05:49:42;25.40;75.00
40053;DHT22;25758;48.200;16.338;2022-08-18T05:52:18;25.40;75.10
40053;DHT22;25758;48.200;16.338;2022-08-18T05:54:53;25.50;75.20
40053;DHT22;25758;48.200;16.338;2022-08-18T05:57:46;25.50;74.90
40053;DHT22;25758;48.200;16.338;2022-08-18T06:00:17;25.60;74.90
40053;DHT22;25758;48.200;16.338;2022-08-18T06:05:42;25.60;74.60
40053;DHT22;25758;48.200;16.338;2022-08-18T06:08:12;25.60;74.80
40053;DHT22;25758;48.200;16.338;2022-08-18T06:10:41;25.60;74.70
40053;DHT22;25758;48.200;16.338;2022-08-18T06:13:09;25.60;74.60
40053;DHT22;25758;48.200;16.338;2022-08-18T06:24:43;25.80;74.50
40053;DHT22;25758;48.200;16.338;2022-08-18T06:30:28;25.80;74.20
40053;DHT22;25758;48.200;16.338;2022-08-18T06:35:45;25.90;74.50
40053;DHT22;25758;48.200;16.338;2022-08-18T06:41:18;25.90;74.10
40053;DHT22;25758;48.200;16.338;2022-08-18T06:44:09;26.00;74.10
40053;DHT22;25758;48.200;16.338;2022-08-18T06:46:37;26.00;74.00
40053;DHT22;25758;48.200;16.338;2022-08-18T06:49:08;26.10;74.10
40053;DHT22;25758;48.200;16.338;2022-08-18T06:51:34;26.10;73.90
40053;DHT22;25758;48.200;16.338;2022-08-18T06:54:28;26.20;73.90
40053;DHT22;25758;48.200;16.338;2022-08-18T06:56:54;26.10;73.70
40053;DHT22;25758;48.200;16.338;2022-08-18T07:01:49;26.20;73.80
40053;DHT22;25758;48.200;16.338;2022-08-18T07:04:39;26.20;73.90
40053;DHT22;25758;48.200;16.338;2022-08-18T07:07:16;26.30;73.90
40053;DHT22;25758;48.200;16.338;2022-08-18T07:09:43;26.30;73.70
40053;DHT22;25758;48.200;16.338;2022-08-18T07:12:10;26.40;73.70
40053;DHT22;25758;48.200;16.338;2022-08-18T07:15:11;26.40;73.60
40053;DHT22;25758;48.200;16.338;2022-08-18T07:17:37;26.40;73.70
40053;DHT22;25758;48.200;16.338;2022-08-18T07:20:19;26.40;73.60
40053;DHT22;25758;48.200;16.338;2022-08-18T07:22:57;26.50;73.60
40053;DHT22;25758;48.200;16.338;2022-08-18T07:25:36;26.50;73.60
40053;DHT22;25758;48.200;16.338;2022-08-18T07:28:04;26.60;73.60
40053;DHT22;25758;48.200;16.338;2022-08-18T07:30:36;26.70;73.40
40053;DHT22;25758;48.200;16.338;2022-08-18T07:33:10;26.80;73.30
40053;DHT22;25758;48.200;16.338;2022-08-18T07:35:53;26.90;73.40
40053;DHT22;25758;48.200;16.338;2022-08-18T07:38:29;26.90;73.40
40053;DHT22;25758;48.200;16.338;2022-08-18T07:41:08;27.10;73.40
40053;DHT22;25758;48.200;16.338;2022-08-18T07:43:59;27.20;73.10
40053;DHT22;25758;48.200;16.338;2022-08-18T07:46:46;27.30;72.80
40053;DHT22;25758;48.200;16.338;2022-08-18T07:49:21;27.40;71.70
40053;DHT22;25758;48.200;16.338;2022-08-18T07:51:52;27.50;71.20
40053;DHT22;25758;48.200;16.338;2022-08-18T07:57:20;27.80;70.60
40053;DHT22;25758;48.200;16.338;2022-08-18T08:00:03;28.10;69.70
40053;DHT22;25758;48.200;16.338;2022-08-18T08:05:40;28.90;68.90
40053;DHT22;25758;48.200;16.338;2022-08-18T08:10:35;29.70;66.70
40053;DHT22;25758;48.200;16.338;2022-08-18T08:13:18;29.90;65.90
40053;DHT22;25758;48.200;16.338;2022-08-18T08:16:08;30.30;65.80
40053;DHT22;25758;48.200;16.338;2022-08-18T08:21:47;31.10;63.60
40053;DHT22;25758;48.200;16.338;2022-08-18T08:29:51;32.00;62.10
40053;DHT22;25758;48.200;16.338;2022-08-18T08:32:33;32.10;61.10
40053;DHT22;25758;48.200;16.338;2022-08-18T08:35:04;32.30;61.00
40053;DHT22;25758;48.200;16.338;2022-08-18T08:37:52;32.50;60.60
40053;DHT22;25758;48.200;16.338;2022-08-18T08:41:09;32.70;60.50
40053;DHT22;25758;48.200;16.338;2022-08-18T08:43:39;32.90;60.90
40053;DHT22;25758;48.200;16.338;2022-08-18T08:46:14;33.20;60.60
40053;DHT22;25758;48.200;16.338;2022-08-18T08:49:04;33.40;60.00
40053;DHT22;25758;48.200;16.338;2022-08-18T08:51:35;33.60;59.70
40053;DHT22;25758;48.200;16.338;2022-08-18T08:54:08;33.70;59.10
40053;DHT22;25758;48.200;16.338;2022-08-18T08:56:39;33.80;59.60
40053;DHT22;25758;48.200;16.338;2022-08-18T08:59:11;33.90;59.60
40053;DHT22;25758;48.200;16.338;2022-08-18T09:10:18;34.10;58.70
40053;DHT22;25758;48.200;16.338;2022-08-18T09:21:17;34.00;59.30
40053;DHT22;25758;48.200;16.338;2022-08-18T09:23:47;34.10;59.00
40053;DHT22;25758;48.200;16.338;2022-08-18T09:31:49;33.90;59.50
40053;DHT22;25758;48.200;16.338;2022-08-18T09:38:06;33.80;59.70
40053;DHT22;25758;48.200;16.338;2022-08-18T09:41:08;33.80;59.90
40053;DHT22;25758;48.200;16.338;2022-08-18T09:51:51;34.00;60.90
40053;DHT22;25758;48.200;16.338;2022-08-18T09:54:23;33.90;60.00
40053;DHT22;25758;48.200;16.338;2022-08-18T10:02:09;33.90;59.60
40053;DHT22;25758;48.200;16.338;2022-08-18T10:04:36;34.00;60.30
40053;DHT22;25758;48.200;16.338;2022-08-18T10:07:33;34.00;60.10
40053;DHT22;25758;48.200;16.338;2022-08-18T10:12:56;34.10;60.20
40053;DHT22;25758;48.200;16.338;2022-08-18T10:34:48;34.10;60.00
40053;DHT22;25758;48.200;16.338;2022-08-18T10:37:26;34.00;59.90
40053;DHT22;25758;48.200;16.338;2022-08-18T10:45:23;34.20;60.30
40053;DHT22;25758;48.200;16.338;2022-08-18T10:51:04;34.30;60.30
40053;DHT22;25758;48.200;16.338;2022-08-18T10:54:03;34.40;60.30
40053;DHT22;25758;48.200;16.338;2022-08-18T10:59:25;34.60;59.40
40053;DHT22;25758;48.200;16.338;2022-08-18T11:04:48;34.70;59.90
40053;DHT22;25758;48.200;16.338;2022-08-18T11:07:25;34.70;59.50
40053;DHT22;25758;48.200;16.338;2022-08-18T11:09:53;34.70;59.60
40053;DHT22;25758;48.200;16.338;2022-08-18T11:15:25;34.70;60.10
40053;DHT22;25758;48.200;16.338;2022-08-18T11:23:38;34.80;59.90
40053;DHT22;25758;48.200;16.338;2022-08-18T11:26:15;34.80;60.20
40053;DHT22;25758;48.200;16.338;2022-08-18T11:28:41;34.70;60.60
40053;DHT22;25758;48.200;16.338;2022-08-18T11:31:06;34.90;59.80
40053;DHT22;25758;48.200;16.338;2022-08-18T11:33:33;34.90;59.20
40053;DHT22;25758;48.200;16.338;2022-08-18T11:35:58;34.90;59.10
40053;DHT22;25758;48.200;16.338;2022-08-18T11:38:26;34.80;59.00
40053;DHT22;25758;48.200;16.338;2022-08-18T11:41:13;34.70;59.10
40053;DHT22;25758;48.200;16.338;2022-08-18T11:43:41;34.60;58.70
40053;DHT22;25758;48.200;16.338;2022-08-18T11:48:48;34.70;58.70
40053;DHT22;25758;48.200;16.338;2022-08-18T11:51:21;34.70;57.70
40053;DHT22;25758;48.200;16.338;2022-08-18T11:53:58;34.70;58.10
40053;DHT22;25758;48.200;16.338;2022-08-18T11:56:32;34.60;58.40
40053;DHT22;25758;48.200;16.338;2022-08-18T11:59:03;34.60;57.80
40053;DHT22;25758;48.200;16.338;2022-08-18T12:06:40;34.60;56.00
40053;DHT22;25758;48.200;16.338;2022-08-18T12:09:14;34.40;56.70
40053;DHT22;25758;48.200;16.338;2022-08-18T12:11:58;34.30;56.40
40053;DHT22;25758;48.200;16.338;2022-08-18T12:14:30;34.20;57.30
40053;DHT22;25758;48.200;16.338;2022-08-18T12:16:56;34.20;57.40
40053;DHT22;25758;48.200;16.338;2022-08-18T12:19:23;34.20;57.10
40053;DHT22;25758;48.200;16.338;2022-08-18T12:21:57;34.20;56.50
40053;DHT22;25758;48.200;16.338;2022-08-18T12:24:29;34.20;56.60
40053;DHT22;25758;48.200;16.338;2022-08-18T12:26:56;34.20;56.80
40053;DHT22;25758;48.200;16.338;2022-08-18T12:29:23;34.10;57.10
40053;DHT22;25758;48.200;16.338;2022-08-18T12:31:51;34.10;56.60
40053;DHT22;25758;48.200;16.338;2022-08-18T12:34:20;34.10;56.80
40053;DHT22;25758;48.200;16.338;2022-08-18T12:36:49;34.00;57.70
40053;DHT22;25758;48.200;16.338;2022-08-18T12:39:15;33.90;56.70
40053;DHT22;25758;48.200;16.338;2022-08-18T12:41:41;33.90;56.60
40053;DHT22;25758;48.200;16.338;2022-08-18T12:44:07;33.90;56.60
40053;DHT22;25758;48.200;16.338;2022-08-18T12:46:32;33.90;56.50
40053;DHT22;25758;48.200;16.338;2022-08-18T12:48:58;33.90;56.20
40053;DHT22;25758;48.200;16.338;2022-08-18T12:51:24;33.80;56.40
40053;DHT22;25758;48.200;16.338;2022-08-18T12:53:56;33.90;57.40
40053;DHT22;25758;48.200;16.338;2022-08-18T12:56:24;33.80;57.50
40053;DHT22;25758;48.200;16.338;2022-08-18T12:58:51;33.80;58.00
40053;DHT22;25758;48.200;16.338;2022-08-18T13:01:18;33.80;57.10
40053;DHT22;25758;48.200;16.338;2022-08-18T13:03:47;33.80;57.70
40053;DHT22;25758;48.200;16.338;2022-08-18T13:06:14;33.70;58.10
40053;DHT22;25758;48.200;16.338;2022-08-18T13:08:40;33.70;58.20
40053;DHT22;25758;48.200;16.338;2022-08-18T13:11:06;33.70;58.20
40053;DHT22;25758;48.200;16.338;2022-08-18T13:13:36;33.70;57.90
40053;DHT22;25758;48.200;16.338;2022-08-18T13:16:04;33.70;57.80
40053;DHT22;25758;48.200;16.338;2022-08-18T13:18:29;33.70;57.60
40053;DHT22;25758;48.200;16.338;2022-08-18T13:20:56;33.70;56.90
40053;DHT22;25758;48.200;16.338;2022-08-18T13:23:22;33.70;56.90
40053;DHT22;25758;48.200;16.338;2022-08-18T13:25:48;33.70;57.90
40053;DHT22;25758;48.200;16.338;2022-08-18T13:28:14;33.60;57.50
40053;DHT22;25758;48.200;16.338;2022-08-18T13:30:39;33.70;56.40
40053;DHT22;25758;48.200;16.338;2022-08-18T13:33:06;33.70;56.60
40053;DHT22;25758;48.200;16.338;2022-08-18T13:35:32;33.70;56.70
40053;DHT22;25758;48.200;16.338;2022-08-18T13:37:58;33.70;56.70
40053;DHT22;25758;48.200;16.338;2022-08-18T13:40:24;33.70;56.00
40053;DHT22;25758;48.200;16.338;2022-08-18T13:42:49;33.70;56.00
40053;DHT22;25758;48.200;16.338;2022-08-18T13:45:20;33.70;55.90
40053;DHT22;25758;48.200;16.338;2022-08-18T13:47:47;33.60;57.40
40053;DHT22;25758;48.200;16.338;2022-08-18T13:50:14;33.60;57.30
40053;DHT22;25758;48.200;16.338;2022-08-18T13:52:41;33.60;57.10
40053;DHT22;25758;48.200;16.338;2022-08-18T13:55:12;33.70;57.10
40053;DHT22;25758;48.200;16.338;2022-08-18T13:57:42;33.60;56.50
40053;DHT22;25758;48.200;16.338;2022-08-18T14:00:15;33.70;57.30
40053;DHT22;25758;48.200;16.338;2022-08-18T14:02:41;33.70;56.50
40053;DHT22;25758;48.200;16.338;2022-08-18T14:05:08;33.60;57.10
40053;DHT22;25758;48.200;16.338;2022-08-18T14:07:35;33.60;56.80
40053;DHT22;25758;48.200;16.338;2022-08-18T14:10:05;33.40;57.20
40053;DHT22;25758;48.200;16.338;2022-08-18T14:12:34;33.40;56.50
40053;DHT22;25758;48.200;16.338;2022-08-18T14:15:03;33.50;56.20
40053;DHT22;25758;48.200;16.338;2022-08-18T14:17:31;33.50;56.30
40053;DHT22;25758;48.200;16.338;2022-08-18T14:19:58;33.50;56.10
40053;DHT22;25758;48.200;16.338;2022-08-18T14:22:43;33.50;56.30
40053;DHT22;25758;48.200;16.338;2022-08-18T14:25:27;33.60;56.60
40053;DHT22;25758;48.200;16.338;2022-08-18T14:28:11;33.50;56.40
40053;DHT22;25758;48.200;16.338;2022-08-18T14:30:37;33.40;56.70
40053;DHT22;25758;48.200;16.338;2022-08-18T14:33:06;33.40;56.20
40053;DHT22;25758;48.200;16.338;2022-08-18T14:35:32;33.40;56.00
40053;DHT22;25758;48.200;16.338;2022-08-18T14:37:58;33.40;56.40
40053;DHT22;25758;48.200;16.338;2022-08-18T14:40:25;33.40;56.70
40053;DHT22;25758;48.200;16.338;2022-08-18T14:42:51;33.30;56.80
40053;DHT22;25758;48.200;16.338;2022-08-18T14:45:16;33.20;57.20
40053;DHT22;25758;48.200;16.338;2022-08-18T14:47:42;33.20;58.00
40053;DHT22;25758;48.200;16.338;2022-08-18T14:50:08;33.10;58.00
40053;DHT22;25758;48.200;16.338;2022-08-18T14:52:38;33.10;57.80
40053;DHT22;25758;48.200;16.338;2022-08-18T14:55:04;33.10;58.10
40053;DHT22;25758;48.200;16.338;2022-08-18T14:57:30;33.10;58.50
40053;DHT22;25758;48.200;16.338;2022-08-18T14:59:56;33.00;58.60
40053;DHT22;25758;48.200;16.338;2022-08-18T15:02:21;33.10;59.00
40053;DHT22;25758;48.200;16.338;2022-08-18T15:04:47;32.90;59.10
40053;DHT22;25758;48.200;16.338;2022-08-18T15:07:13;32.90;58.90
40053;DHT22;25758;48.200;16.338;2022-08-18T15:09:38;32.90;59.20
40053;DHT22;25758;48.200;16.338;2022-08-18T15:12:04;33.00;59.00
40053;DHT22;25758;48.200;16.338;2022-08-18T15:14:31;33.10;59.00
40053;DHT22;25758;48.200;16.338;2022-08-18T15:17:00;33.10;59.00
40053;DHT22;25758;48.200;16.338;2022-08-18T15:19:26;33.10;59.00
40053;DHT22;25758;48.200;16.338;2022-08-18T15:21:52;33.20;58.80
40053;DHT22;25758;48.200;16.338;2022-08-18T15:24:40;33.20;58.90
40053;DHT22;25758;48.200;16.338;2022-08-18T15:27:33;33.30;58.20
40053;DHT22;25758;48.200;16.338;2022-08-18T15:30:02;33.30;58.90
40053;DHT22;25758;48.200;16.338;2022-08-18T15:32:29;33.20;58.30
40053;DHT22;25758;48.200;16.338;2022-08-18T15:34:55;33.10;58.10
40053;DHT22;25758;48.200;16.338;2022-08-18T15:37:20;33.10;57.40
40053;DHT22;25758;48.200;16.338;2022-08-18T15:39:48;33.10;57.20
40053;DHT22;25758;48.200;16.338;2022-08-18T15:42:13;33.10;57.40
40053;DHT22;25758;48.200;16.338;2022-08-18T15:44:39;33.10;57.40
40053;DHT22;25758;48.200;16.338;2022-08-18T15:47:05;33.10;57.30
40053;DHT22;25758;48.200;16.338;2022-08-18T15:49:31;33.00;57.70
40053;DHT22;25758;48.200;16.338;2022-08-18T15:51:57;32.90;57.80
40053;DHT22;25758;48.200;16.338;2022-08-18T15:54:23;32.90;57.90
40053;DHT22;25758;48.200;16.338;2022-08-18T15:56:49;32.80;58.40
40053;DHT22;25758;48.200;16.338;2022-08-18T15:59:15;32.90;58.20
40053;DHT22;25758;48.200;16.338;2022-08-18T16:01:40;32.80;59.00
40053;DHT22;25758;48.200;16.338;2022-08-18T16:04:06;32.80;58.70
40053;DHT22;25758;48.200;16.338;2022-08-18T16:06:33;32.70;58.80
40053;DHT22;25758;48.200;16.338;2022-08-18T16:09:02;32.70;58.90
40053;DHT22;25758;48.200;16.338;2022-08-18T16:11:28;32.70;57.80
40053;DHT22;25758;48.200;16.338;2022-08-18T16:13:54;32.60;58.00
40053;DHT22;25758;48.200;16.338;2022-08-18T16:16:21;32.50;58.20
40053;DHT22;25758;48.200;16.338;2022-08-18T16:18:48;32.50;59.10
40053;DHT22;25758;48.200;16.338;2022-08-18T16:21:17;32.30;59.00
40053;DHT22;25758;48.200;16.338;2022-08-18T16:23:47;32.30;59.40
40053;DHT22;25758;48.200;16.338;2022-08-18T16:26:15;32.10;59.60
40053;DHT22;25758;48.200;16.338;2022-08-18T16:28:42;32.10;60.20
40053;DHT22;25758;48.200;16.338;2022-08-18T16:31:10;31.90;60.30
40053;DHT22;25758;48.200;16.338;2022-08-18T16:33:40;31.90;60.60
40053;DHT22;25758;48.200;16.338;2022-08-18T16:36:08;31.90;60.70
40053;DHT22;25758;48.200;16.338;2022-08-18T16:38:35;31.80;61.10
40053;DHT22;25758;48.200;16.338;2022-08-18T16:41:07;31.80;61.10
40053;DHT22;25758;48.200;16.338;2022-08-18T16:43:37;31.70;61.00
40053;DHT22;25758;48.200;16.338;2022-08-18T16:46:03;31.70;61.10
40053;DHT22;25758;48.200;16.338;2022-08-18T16:48:33;31.50;61.50
40053;DHT22;25758;48.200;16.338;2022-08-18T16:50:59;31.40;61.90
40053;DHT22;25758;48.200;16.338;2022-08-18T16:53:24;31.30;62.00
40053;DHT22;25758;48.200;16.338;2022-08-18T16:55:50;31.30;62.50
40053;DHT22;25758;48.200;16.338;2022-08-18T16:58:16;31.10;62.80
40053;DHT22;25758;48.200;16.338;2022-08-18T17:01:00;31.10;63.20
40053;DHT22;25758;48.200;16.338;2022-08-18T17:03:45;31.00;63.30
40053;DHT22;25758;48.200;16.338;2022-08-18T17:06:30;31.00;63.20
40053;DHT22;25758;48.200;16.338;2022-08-18T17:08:56;30.90;63.40
40053;DHT22;25758;48.200;16.338;2022-08-18T17:11:24;30.60;64.20
40053;DHT22;25758;48.200;16.338;2022-08-18T17:13:52;30.50;64.60
40053;DHT22;25758;48.200;16.338;2022-08-18T17:16:19;30.50;64.50
40053;DHT22;25758;48.200;16.338;2022-08-18T17:18:45;30.40;64.30
40053;DHT22;25758;48.200;16.338;2022-08-18T17:21:15;30.40;64.50
40053;DHT22;25758;48.200;16.338;2022-08-18T17:23:41;30.40;64.50
40053;DHT22;25758;48.200;16.338;2022-08-18T17:26:12;30.30;64.80
40053;DHT22;25758;48.200;16.338;2022-08-18T17:28:45;30.20;65.10
40053;DHT22;25758;48.200;16.338;2022-08-18T17:31:12;30.10;65.50
40053;DHT22;25758;48.200;16.338;2022-08-18T17:33:39;30.00;65.60
40053;DHT22;25758;48.200;16.338;2022-08-18T17:36:14;29.90;66.00
40053;DHT22;25758;48.200;16.338;2022-08-18T17:38:43;29.80;66.60
40053;DHT22;25758;48.200;16.338;2022-08-18T17:41:10;29.70;66.80
40053;DHT22;25758;48.200;16.338;2022-08-18T17:43:37;29.50;67.20
40053;DHT22;25758;48.200;16.338;2022-08-18T17:46:21;29.40;67.70
40053;DHT22;25758;48.200;16.338;2022-08-18T17:49:05;29.30;67.90
40053;DHT22;25758;48.200;16.338;2022-08-18T17:51:39;29.20;68.10
40053;DHT22;25758;48.200;16.338;2022-08-18T17:54:26;29.10;68.10
40053;DHT22;25758;48.200;16.338;2022-08-18T17:57:00;29.00;68.30